sensor_id;sensor_type;location;lat;lon;timestamp;pressure;altitude;pressure_sealevel;temperature;humidity
64460;BME280;50828;53.756;21.140;2023-10-31T00:03:25;98708.22;;;10.48;70.64
64460;BME280;50828;53.756;21.140;2023-10-31T00:08:33;98708.46;;;10.44;70.57
64460;BME280;50828;53.756;21.140;2023-10-31T00:13:41;98701.83;;;10.41;70.66
64460;BME280;50828;53.756;21.140;2023-10-31T00:18:49;98695.07;;;10.36;70.70
64460;BME280;50828;53.756;21.140;2023-10-31T00:23:56;98694.60;;;10.32;70.53
64460;BME280;50828;53.756;21.140;2023-10-31T00:29:04;98701.33;;;10.28;70.58
64460;BME280;50828;53.756;21.140;2023-10-31T00:34:11;98693.30;;;10.24;70.96
64460;BME280;50828;53.756;21.140;2023-10-31T00:39:19;98681.70;;;10.21;71.16
64460;BME280;50828;53.756;21.140;2023-10-31T00:44:28;98669.69;;;10.19;71.23
64460;BME280;50828;53.756;21.140;2023-10-31T00:49:35;98665.63;;;10.16;71.16
64460;BME280;50828;53.756;21.140;2023-10-31T00:54:43;98671.60;;;10.14;71.16
64460;BME280;50828;53.756;21.140;2023-10-31T00:59:51;98670.04;;;10.14;71.53
64460;BME280;50828;53.756;21.140;2023-10-31T01:04:58;98677.55;;;10.11;71.30
64460;BME280;50828;53.756;21.140;2023-10-31T01:10:09;98667.43;;;10.10;71.49
64460;BME280;50828;53.756;21.140;2023-10-31T01:15:17;98654.20;;;10.07;71.62
64460;BME280;50828;53.756;21.140;2023-10-31T01:20:25;98647.06;;;10.06;71.61
64460;BME280;50828;53.756;21.140;2023-10-31T01:25:32;98638.13;;;10.06;71.40
64460;BME280;50828;53.756;21.140;2023-10-31T01:30:40;98628.69;;;10.05;71.47
64460;BME280;50828;53.756;21.140;2023-10-31T01:35:47;98627.20;;;10.03;71.40
64460;BME280;50828;53.756;21.140;2023-10-31T01:40:55;98605.21;;;10.01;71.54
64460;BME280;50828;53.756;21.140;2023-10-31T01:46:03;98592.73;;;9.98;71.66
64460;BME280;50828;53.756;21.140;2023-10-31T01:51:11;98584.94;;;9.96;71.74
64460;BME280;50828;53.756;21.140;2023-10-31T01:56:19;98564.32;;;9.93;71.64
64460;BME280;50828;53.756;21.140;2023-10-31T02:01:27;98539.11;;;9.91;71.96
64460;BME280;50828;53.756;21.140;2023-10-31T02:06:35;98521.28;;;9.90;71.92
64460;BME280;50828;53.756;21.140;2023-10-31T02:11:42;98514.90;;;9.88;72.12
64460;BME280;50828;53.756;21.140;2023-10-31T02:16:50;98504.91;;;9.87;72.13
64460;BME280;50828;53.756;21.140;2023-10-31T02:21:58;98497.72;;;9.87;71.99
64460;BME280;50828;53.756;21.140;2023-10-31T02:27:06;98484.55;;;9.87;72.43
64460;BME280;50828;53.756;21.140;2023-10-31T02:32:14;98473.09;;;9.87;72.49
64460;BME280;50828;53.756;21.140;2023-10-31T02:37:21;98462.17;;;9.88;72.60
64460;BME280;50828;53.756;21.140;2023-10-31T02:42:29;98447.01;;;9.88;72.71
64460;BME280;50828;53.756;21.140;2023-10-31T02:47:37;98435.40;;;9.88;72.71
64460;BME280;50828;53.756;21.140;2023-10-31T02:52:45;98423.61;;;9.89;72.69
64460;BME280;50828;53.756;21.140;2023-10-31T02:57:53;98404.74;;;9.89;72.76
64460;BME280;50828;53.756;21.140;2023-10-31T03:03:00;98393.43;;;9.90;72.87
64460;BME280;50828;53.756;21.140;2023-10-31T03:08:08;98396.68;;;9.91;73.19
64460;BME280;50828;53.756;21.140;2023-10-31T03:13:16;98397.13;;;9.93;73.23
64460;BME280;50828;53.756;21.140;2023-10-31T03:18:23;98391.08;;;9.94;73.46
64460;BME280;50828;53.756;21.140;2023-10-31T03:23:31;98377.77;;;9.96;73.45
64460;BME280;50828;53.756;21.140;2023-10-31T03:28:38;98372.63;;;9.99;73.50
64460;BME280;50828;53.756;21.140;2023-10-31T03:33:47;98372.91;;;10.03;73.60
64460;BME280;50828;53.756;21.140;2023-10-31T03:38:54;98351.22;;;10.06;73.97
64460;BME280;50828;53.756;21.140;2023-10-31T03:44:02;98336.29;;;10.11;73.77
64460;BME280;50828;53.756;21.140;2023-10-31T03:49:11;98322.77;;;10.16;74.09
64460;BME280;50828;53.756;21.140;2023-10-31T03:54:18;98309.77;;;10.22;73.99
64460;BME280;50828;53.756;21.140;2023-10-31T03:59:26;98281.98;;;10.27;74.00
64460;BME280;50828;53.756;21.140;2023-10-31T04:04:33;98264.24;;;10.32;74.05
64460;BME280;50828;53.756;21.140;2023-10-31T04:09:41;98244.58;;;10.36;74.28
64460;BME280;50828;53.756;21.140;2023-10-31T04:14:49;98235.41;;;10.42;74.32
64460;BME280;50828;53.756;21.140;2023-10-31T04:19:56;98227.12;;;10.47;74.38
64460;BME280;50828;53.756;21.140;2023-10-31T04:25:04;98206.27;;;10.46;74.41
64460;BME280;50828;53.756;21.140;2023-10-31T04:30:14;98204.65;;;10.57;74.36
64460;BME280;50828;53.756;21.140;2023-10-31T04:35:21;98202.19;;;10.61;74.58
64460;BME280;50828;53.756;21.140;2023-10-31T04:40:29;98208.94;;;10.65;74.25
64460;BME280;50828;53.756;21.140;2023-10-31T04:45:36;98207.03;;;10.70;74.59
64460;BME280;50828;53.756;21.140;2023-10-31T04:50:44;98197.81;;;10.73;74.67
64460;BME280;50828;53.756;21.140;2023-10-31T04:55:52;98185.73;;;10.78;74.54
64460;BME280;50828;53.756;21.140;2023-10-31T05:00:59;98183.21;;;10.80;74.42
64460;BME280;50828;53.756;21.140;2023-10-31T05:06:07;98174.09;;;10.85;74.59
64460;BME280;50828;53.756;21.140;2023-10-31T05:11:15;98150.59;;;10.84;74.85
64460;BME280;50828;53.756;21.140;2023-10-31T05:16:24;98150.29;;;10.93;74.50
64460;BME280;50828;53.756;21.140;2023-10-31T05:21:31;98149.66;;;10.97;74.77
64460;BME280;50828;53.756;21.140;2023-10-31T05:26:41;98141.83;;;11.00;74.69
64460;BME280;50828;53.756;21.140;2023-10-31T05:31:48;98131.19;;;11.04;74.91
64460;BME280;50828;53.756;21.140;2023-10-31T05:36:56;98117.56;;;11.07;74.85
64460;BME280;50828;53.756;21.140;2023-10-31T05:42:03;98113.97;;;11.10;74.75
64460;BME280;50828;53.756;21.140;2023-10-31T05:47:11;98103.16;;;11.13;74.83
64460;BME280;50828;53.756;21.140;2023-10-31T05:52:19;98090.42;;;11.16;74.77
64460;BME280;50828;53.756;21.140;2023-10-31T05:57:28;98072.61;;;11.19;75.10
64460;BME280;50828;53.756;21.140;2023-10-31T06:02:35;98066.27;;;11.22;74.74
64460;BME280;50828;53.756;21.140;2023-10-31T06:07:43;98054.31;;;11.24;74.95
64460;BME280;50828;53.756;21.140;2023-10-31T06:12:50;98046.44;;;11.26;74.66
64460;BME280;50828;53.756;21.140;2023-10-31T06:17:58;98034.98;;;11.28;74.80
64460;BME280;50828;53.756;21.140;2023-10-31T06:23:05;98027.99;;;11.29;74.75
64460;BME280;50828;53.756;21.140;2023-10-31T06:28:13;98012.38;;;11.31;74.75
64460;BME280;50828;53.756;21.140;2023-10-31T06:33:20;98011.52;;;11.32;74.74
64460;BME280;50828;53.756;21.140;2023-10-31T06:38:28;97999.35;;;11.35;74.74
64460;BME280;50828;53.756;21.140;2023-10-31T06:43:36;97997.63;;;11.37;74.89
64460;BME280;50828;53.756;21.140;2023-10-31T06:48:44;97985.11;;;11.39;75.06
64460;BME280;50828;53.756;21.140;2023-10-31T06:53:52;97981.60;;;11.43;74.98
64460;BME280;50828;53.756;21.140;2023-10-31T06:59:00;97974.09;;;11.47;75.11
64460;BME280;50828;53.756;21.140;2023-10-31T07:04:08;97972.50;;;11.51;75.09
64460;BME280;50828;53.756;21.140;2023-10-31T07:09:15;97982.36;;;11.59;75.00
64460;BME280;50828;53.756;21.140;2023-10-31T07:14:23;97982.08;;;11.65;75.12
64460;BME280;50828;53.756;21.140;2023-10-31T07:19:31;97979.45;;;11.71;75.15
64460;BME280;50828;53.756;21.140;2023-10-31T07:24:38;97973.13;;;11.77;75.10
64460;BME280;50828;53.756;21.140;2023-10-31T07:29:47;97966.63;;;11.82;75.11
64460;BME280;50828;53.756;21.140;2023-10-31T07:34:55;97962.91;;;11.91;75.03
64460;BME280;50828;53.756;21.140;2023-10-31T07:40:04;97964.67;;;11.98;75.08
64460;BME280;50828;53.756;21.140;2023-10-31T07:45:13;97954.95;;;12.07;74.93
64460;BME280;50828;53.756;21.140;2023-10-31T07:50:20;97936.94;;;12.14;74.99
64460;BME280;50828;53.756;21.140;2023-10-31T07:55:28;97920.44;;;12.19;74.78
64460;BME280;50828;53.756;21.140;2023-10-31T08:00:36;97915.83;;;12.26;74.72
64460;BME280;50828;53.756;21.140;2023-10-31T08:05:45;97913.65;;;12.33;74.78
64460;BME280;50828;53.756;21.140;2023-10-31T08:10:52;97914.75;;;12.41;74.56
64460;BME280;50828;53.756;21.140;2023-10-31T08:16:00;97905.02;;;12.48;74.42
64460;BME280;50828;53.756;21.140;2023-10-31T08:21:08;97897.36;;;12.55;74.51
64460;BME280;50828;53.756;21.140;2023-10-31T08:26:15;97907.73;;;12.62;74.32
64460;BME280;50828;53.756;21.140;2023-10-31T08:31:23;97897.10;;;12.71;74.26
64460;BME280;50828;53.756;21.140;2023-10-31T08:36:31;97891.92;;;12.74;74.11
64460;BME280;50828;53.756;21.140;2023-10-31T08:41:39;97877.36;;;12.83;73.94
64460;BME280;50828;53.756;21.140;2023-10-31T08:46:57;97861.42;;;12.94;73.83
64460;BME280;50828;53.756;21.140;2023-10-31T08:52:05;97850.15;;;13.04;73.84
64460;BME280;50828;53.756;21.140;2023-10-31T08:57:13;97841.64;;;13.13;73.64
64460;BME280;50828;53.756;21.140;2023-10-31T09:02:21;97834.85;;;13.19;73.51
64460;BME280;50828;53.756;21.140;2023-10-31T09:07:28;97823.14;;;13.28;73.46
64460;BME280;50828;53.756;21.140;2023-10-31T09:12:36;97815.63;;;13.38;73.44
64460;BME280;50828;53.756;21.140;2023-10-31T09:17:43;97805.87;;;13.46;73.06
64460;BME280;50828;53.756;21.140;2023-10-31T09:22:55;97794.71;;;13.56;72.99
64460;BME280;50828;53.756;21.140;2023-10-31T09:28:03;97782.98;;;13.67;73.05
64460;BME280;50828;53.756;21.140;2023-10-31T09:33:12;97787.85;;;13.80;72.95
64460;BME280;50828;53.756;21.140;2023-10-31T09:38:19;97782.73;;;13.91;72.82
64460;BME280;50828;53.756;21.140;2023-10-31T09:43:27;97781.94;;;14.04;72.64
64460;BME280;50828;53.756;21.140;2023-10-31T09:48:35;97780.75;;;14.17;72.37
64460;BME280;50828;53.756;21.140;2023-10-31T09:53:44;97777.98;;;14.29;72.08
64460;BME280;50828;53.756;21.140;2023-10-31T09:58:53;97770.89;;;14.39;71.80
64460;BME280;50828;53.756;21.140;2023-10-31T10:04:02;97776.91;;;14.47;71.67
64460;BME280;50828;53.756;21.140;2023-10-31T10:09:10;97771.25;;;14.53;71.81
64460;BME280;50828;53.756;21.140;2023-10-31T10:14:18;97775.77;;;14.59;71.99
64460;BME280;50828;53.756;21.140;2023-10-31T10:19:26;97775.27;;;14.65;71.99
64460;BME280;50828;53.756;21.140;2023-10-31T10:24:34;97795.53;;;14.70;72.05
64460;BME280;50828;53.756;21.140;2023-10-31T10:29:42;97791.84;;;14.72;72.07
64460;BME280;50828;53.756;21.140;2023-10-31T10:34:51;97792.92;;;14.73;72.09
64460;BME280;50828;53.756;21.140;2023-10-31T10:39:59;97781.67;;;14.74;72.20
64460;BME280;50828;53.756;21.140;2023-10-31T10:45:12;97775.79;;;14.76;72.25
64460;BME280;50828;53.756;21.140;2023-10-31T10:50:21;97781.41;;;14.77;72.28
64460;BME280;50828;53.756;21.140;2023-10-31T10:55:37;97776.73;;;14.74;72.14
64460;BME280;50828;53.756;21.140;2023-10-31T11:00:47;97775.13;;;14.72;72.27
64460;BME280;50828;53.756;21.140;2023-10-31T11:05:55;97767.80;;;14.67;72.07
64460;BME280;50828;53.756;21.140;2023-10-31T11:11:04;97767.48;;;14.65;72.11
64460;BME280;50828;53.756;21.140;2023-10-31T11:16:15;97765.42;;;14.60;72.14
64460;BME280;50828;53.756;21.140;2023-10-31T11:21:26;97760.89;;;14.56;72.18
64460;BME280;50828;53.756;21.140;2023-10-31T11:26:35;97755.35;;;14.50;72.33
64460;BME280;50828;53.756;21.140;2023-10-31T11:31:58;97746.48;;;14.45;72.30
64460;BME280;50828;53.756;21.140;2023-10-31T11:37:25;97740.88;;;14.42;72.36
64460;BME280;50828;53.756;21.140;2023-10-31T11:42:33;97729.15;;;14.39;72.59
64460;BME280;50828;53.756;21.140;2023-10-31T11:47:50;97727.45;;;14.36;72.73
64460;BME280;50828;53.756;21.140;2023-10-31T11:53:04;97724.13;;;14.32;72.73
64460;BME280;50828;53.756;21.140;2023-10-31T11:58:20;97722.98;;;14.31;72.68
64460;BME280;50828;53.756;21.140;2023-10-31T12:03:28;97715.53;;;14.27;72.83
64460;BME280;50828;53.756;21.140;2023-10-31T12:08:44;97714.58;;;14.26;72.77
64460;BME280;50828;53.756;21.140;2023-10-31T12:13:57;97725.38;;;14.24;73.04
64460;BME280;50828;53.756;21.140;2023-10-31T12:19:07;97732.70;;;14.26;73.09
64460;BME280;50828;53.756;21.140;2023-10-31T12:24:15;97733.65;;;14.23;73.33
64460;BME280;50828;53.756;21.140;2023-10-31T12:29:23;97738.02;;;14.22;73.49
64460;BME280;50828;53.756;21.140;2023-10-31T12:34:32;97738.86;;;14.22;73.67
64460;BME280;50828;53.756;21.140;2023-10-31T12:39:40;97746.19;;;14.23;73.87
64460;BME280;50828;53.756;21.140;2023-10-31T12:44:48;97747.99;;;14.27;73.92
64460;BME280;50828;53.756;21.140;2023-10-31T12:50:09;97755.39;;;14.31;73.96
64460;BME280;50828;53.756;21.140;2023-10-31T12:55:21;97763.05;;;14.35;74.15
64460;BME280;50828;53.756;21.140;2023-10-31T13:00:34;97765.45;;;14.37;74.13
64460;BME280;50828;53.756;21.140;2023-10-31T13:05:43;97771.34;;;14.38;74.53
64460;BME280;50828;53.756;21.140;2023-10-31T13:10:52;97775.57;;;14.42;74.66
64460;BME280;50828;53.756;21.140;2023-10-31T13:16:01;97786.83;;;14.45;74.51
64460;BME280;50828;53.756;21.140;2023-10-31T13:21:09;97801.58;;;14.46;74.57
64460;BME280;50828;53.756;21.140;2023-10-31T13:26:16;97801.73;;;14.48;74.57
64460;BME280;50828;53.756;21.140;2023-10-31T13:31:24;97798.14;;;14.49;74.22
64460;BME280;50828;53.756;21.140;2023-10-31T13:36:32;97803.73;;;14.50;74.15
64460;BME280;50828;53.756;21.140;2023-10-31T13:41:39;97805.48;;;14.50;74.02
64460;BME280;50828;53.756;21.140;2023-10-31T13:46:47;97810.09;;;14.52;74.09
64460;BME280;50828;53.756;21.140;2023-10-31T13:51:54;97819.00;;;14.51;73.87
64460;BME280;50828;53.756;21.140;2023-10-31T13:57:02;97840.77;;;14.52;73.86
64460;BME280;50828;53.756;21.140;2023-10-31T14:02:10;97850.38;;;14.55;73.69
64460;BME280;50828;53.756;21.140;2023-10-31T14:07:22;97855.23;;;14.56;73.63
64460;BME280;50828;53.756;21.140;2023-10-31T14:12:30;97859.38;;;14.57;73.53
64460;BME280;50828;53.756;21.140;2023-10-31T14:17:38;97870.88;;;14.57;73.28
64460;BME280;50828;53.756;21.140;2023-10-31T14:22:50;97874.02;;;14.56;73.13
64460;BME280;50828;53.756;21.140;2023-10-31T14:27:58;97878.77;;;14.56;72.88
64460;BME280;50828;53.756;21.140;2023-10-31T14:33:06;97879.81;;;14.55;72.56
64460;BME280;50828;53.756;21.140;2023-10-31T14:38:14;97891.51;;;14.55;72.18
64460;BME280;50828;53.756;21.140;2023-10-31T14:43:22;97903.95;;;14.54;71.77
64460;BME280;50828;53.756;21.140;2023-10-31T14:48:29;97911.61;;;14.53;71.41
64460;BME280;50828;53.756;21.140;2023-10-31T14:53:37;97920.52;;;14.53;71.14
64460;BME280;50828;53.756;21.140;2023-10-31T14:58:45;97939.38;;;14.53;71.08
64460;BME280;50828;53.756;21.140;2023-10-31T15:03:53;97947.75;;;14.52;71.04
64460;BME280;50828;53.756;21.140;2023-10-31T15:09:01;97950.95;;;14.52;71.07
64460;BME280;50828;53.756;21.140;2023-10-31T15:14:09;97960.28;;;14.52;71.11
64460;BME280;50828;53.756;21.140;2023-10-31T15:19:16;97969.55;;;14.53;70.99
64460;BME280;50828;53.756;21.140;2023-10-31T15:24:24;97965.86;;;14.53;71.02
64460;BME280;50828;53.756;21.140;2023-10-31T15:29:31;97972.05;;;14.51;70.92
64460;BME280;50828;53.756;21.140;2023-10-31T15:34:43;97975.68;;;14.50;71.02
64460;BME280;50828;53.756;21.140;2023-10-31T15:39:51;97978.03;;;14.49;71.02
64460;BME280;50828;53.756;21.140;2023-10-31T15:44:58;97977.52;;;14.49;70.89
64460;BME280;50828;53.756;21.140;2023-10-31T15:50:08;97982.06;;;14.50;70.86
64460;BME280;50828;53.756;21.140;2023-10-31T15:55:16;97979.39;;;14.50;70.75
64460;BME280;50828;53.756;21.140;2023-10-31T16:00:24;97990.14;;;14.48;70.61
64460;BME280;50828;53.756;21.140;2023-10-31T16:05:33;98004.82;;;14.47;70.68
64460;BME280;50828;53.756;21.140;2023-10-31T16:10:41;98009.95;;;14.45;70.69
64460;BME280;50828;53.756;21.140;2023-10-31T16:15:48;98009.60;;;14.45;70.72
64460;BME280;50828;53.756;21.140;2023-10-31T16:20:57;98010.09;;;14.45;70.79
64460;BME280;50828;53.756;21.140;2023-10-31T16:26:05;98008.45;;;14.46;70.69
64460;BME280;50828;53.756;21.140;2023-10-31T16:31:13;98008.09;;;14.46;70.49
64460;BME280;50828;53.756;21.140;2023-10-31T16:36:21;98017.70;;;14.45;70.67
64460;BME280;50828;53.756;21.140;2023-10-31T16:41:29;98030.27;;;14.43;70.51
64460;BME280;50828;53.756;21.140;2023-10-31T16:46:37;98041.41;;;14.42;70.73
64460;BME280;50828;53.756;21.140;2023-10-31T16:51:51;98045.73;;;14.39;70.78
64460;BME280;50828;53.756;21.140;2023-10-31T16:57:00;98045.34;;;14.37;70.83
64460;BME280;50828;53.756;21.140;2023-10-31T17:02:08;98051.48;;;14.34;70.77
64460;BME280;50828;53.756;21.140;2023-10-31T17:07:16;98056.41;;;14.30;70.76
64460;BME280;50828;53.756;21.140;2023-10-31T17:12:23;98060.65;;;14.26;70.67
64460;BME280;50828;53.756;21.140;2023-10-31T17:23:26;98071.23;;;14.21;69.98
64460;BME280;50828;53.756;21.140;2023-10-31T17:28:36;98066.63;;;14.19;70.07
64460;BME280;50828;53.756;21.140;2023-10-31T17:33:45;98072.73;;;14.16;70.05
64460;BME280;50828;53.756;21.140;2023-10-31T17:38:53;98084.31;;;14.13;70.00
64460;BME280;50828;53.756;21.140;2023-10-31T17:44:01;98091.21;;;14.08;69.92
64460;BME280;50828;53.756;21.140;2023-10-31T17:49:08;98097.19;;;14.05;69.87
64460;BME280;50828;53.756;21.140;2023-10-31T17:54:16;98109.52;;;14.02;69.77
64460;BME280;50828;53.756;21.140;2023-10-31T17:59:25;98124.09;;;13.99;69.66
64460;BME280;50828;53.756;21.140;2023-10-31T18:04:34;98145.45;;;13.91;69.54
64460;BME280;50828;53.756;21.140;2023-10-31T18:09:41;98169.09;;;13.79;69.77
64460;BME280;50828;53.756;21.140;2023-10-31T18:14:49;98171.16;;;13.63;69.49
64460;BME280;50828;53.756;21.140;2023-10-31T18:19:57;98155.71;;;13.40;68.97
64460;BME280;50828;53.756;21.140;2023-10-31T18:25:05;98166.07;;;13.34;68.35
64460;BME280;50828;53.756;21.140;2023-10-31T18:30:14;98162.98;;;13.20;67.19
64460;BME280;50828;53.756;21.140;2023-10-31T18:35:21;98162.66;;;13.07;65.88
64460;BME280;50828;53.756;21.140;2023-10-31T18:40:31;98168.61;;;12.90;64.73
64460;BME280;50828;53.756;21.140;2023-10-31T18:45:39;98178.29;;;12.79;64.05
64460;BME280;50828;53.756;21.140;2023-10-31T18:50:47;98188.42;;;12.67;64.61
64460;BME280;50828;53.756;21.140;2023-10-31T18:55:55;98189.38;;;12.58;64.60
64460;BME280;50828;53.756;21.140;2023-10-31T19:01:03;98182.15;;;12.46;64.53
64460;BME280;50828;53.756;21.140;2023-10-31T19:06:11;98173.13;;;12.35;64.97
64460;BME280;50828;53.756;21.140;2023-10-31T19:11:19;98168.63;;;12.27;65.01
64460;BME280;50828;53.756;21.140;2023-10-31T19:16:27;98173.45;;;12.17;64.84
64460;BME280;50828;53.756;21.140;2023-10-31T19:21:34;98174.10;;;12.11;65.33
64460;BME280;50828;53.756;21.140;2023-10-31T19:26:43;98187.06;;;12.03;65.55
64460;BME280;50828;53.756;21.140;2023-10-31T19:31:51;98181.52;;;11.95;65.81
64460;BME280;50828;53.756;21.140;2023-10-31T19:36:59;98170.59;;;11.87;65.96
64460;BME280;50828;53.756;21.140;2023-10-31T19:42:06;98174.64;;;11.83;66.02
64460;BME280;50828;53.756;21.140;2023-10-31T19:47:14;98173.42;;;11.78;66.15
64460;BME280;50828;53.756;21.140;2023-10-31T19:52:22;98180.48;;;11.75;66.06
64460;BME280;50828;53.756;21.140;2023-10-31T19:57:29;98172.77;;;11.72;66.30
64460;BME280;50828;53.756;21.140;2023-10-31T20:02:37;98159.45;;;11.69;66.54
64460;BME280;50828;53.756;21.140;2023-10-31T20:07:49;98171.13;;;11.66;66.41
64460;BME280;50828;53.756;21.140;2023-10-31T20:12:56;98177.79;;;11.62;66.47
64460;BME280;50828;53.756;21.140;2023-10-31T20:18:05;98180.27;;;11.57;66.54
64460;BME280;50828;53.756;21.140;2023-10-31T20:23:13;98190.56;;;11.54;66.61
64460;BME280;50828;53.756;21.140;2023-10-31T20:28:20;98206.58;;;11.49;66.59
64460;BME280;50828;53.756;21.140;2023-10-31T20:33:28;98204.79;;;11.45;66.77
64460;BME280;50828;53.756;21.140;2023-10-31T20:38:36;98206.87;;;11.41;67.02
64460;BME280;50828;53.756;21.140;2023-10-31T20:43:43;98202.56;;;11.37;67.07
64460;BME280;50828;53.756;21.140;2023-10-31T20:48:51;98215.23;;;11.35;67.31
64460;BME280;50828;53.756;21.140;2023-10-31T20:53:59;98211.22;;;11.32;67.37
64460;BME280;50828;53.756;21.140;2023-10-31T20:59:07;98219.34;;;11.30;67.40
64460;BME280;50828;53.756;21.140;2023-10-31T21:04:15;98223.23;;;11.29;67.80
64460;BME280;50828;53.756;21.140;2023-10-31T21:09:23;98211.85;;;11.28;67.68
64460;BME280;50828;53.756;21.140;2023-10-31T21:14:30;98212.08;;;11.27;67.79
64460;BME280;50828;53.756;21.140;2023-10-31T21:19:38;98199.48;;;11.26;67.99
64460;BME280;50828;53.756;21.140;2023-10-31T21:24:46;98199.76;;;11.27;67.93
64460;BME280;50828;53.756;21.140;2023-10-31T21:29:53;98204.95;;;11.29;68.07
64460;BME280;50828;53.756;21.140;2023-10-31T21:35:01;98214.73;;;11.27;68.13
64460;BME280;50828;53.756;21.140;2023-10-31T21:40:11;98206.54;;;11.29;68.09
64460;BME280;50828;53.756;21.140;2023-10-31T21:45:18;98208.38;;;11.30;68.14
64460;BME280;50828;53.756;21.140;2023-10-31T21:50:24;98191.48;;;11.30;68.30
64460;BME280;50828;53.756;21.140;2023-10-31T21:55:32;98192.45;;;11.31;68.35
64460;BME280;50828;53.756;21.140;2023-10-31T22:00:40;98203.39;;;11.33;68.48
64460;BME280;50828;53.756;21.140;2023-10-31T22:05:49;98206.62;;;11.35;68.41
64460;BME280;50828;53.756;21.140;2023-10-31T22:10:57;98196.91;;;11.35;68.36
64460;BME280;50828;53.756;21.140;2023-10-31T22:16:06;98190.23;;;11.37;68.20
64460;BME280;50828;53.756;21.140;2023-10-31T22:21:14;98201.89;;;11.36;68.54
64460;BME280;50828;53.756;21.140;2023-10-31T22:26:22;98193.51;;;11.35;68.67
64460;BME280;50828;53.756;21.140;2023-10-31T22:31:29;98208.45;;;11.38;68.37
64460;BME280;50828;53.756;21.140;2023-10-31T22:36:42;98231.95;;;11.40;68.49
64460;BME280;50828;53.756;21.140;2023-10-31T22:41:50;98238.11;;;11.40;68.51
64460;BME280;50828;53.756;21.140;2023-10-31T22:46:57;98246.50;;;11.41;68.56
64460;BME280;50828;53.756;21.140;2023-10-31T22:52:05;98234.32;;;11.44;68.43
64460;BME280;50828;53.756;21.140;2023-10-31T22:57:13;98233.98;;;11.44;68.56
64460;BME280;50828;53.756;21.140;2023-10-31T23:02:21;98241.79;;;11.43;68.24
64460;BME280;50828;53.756;21.140;2023-10-31T23:07:29;98253.14;;;11.44;68.17
64460;BME280;50828;53.756;21.140;2023-10-31T23:12:37;98270.61;;;11.44;68.27
64460;BME280;50828;53.756;21.140;2023-10-31T23:17:45;98282.89;;;11.42;68.38
64460;BME280;50828;53.756;21.140;2023-10-31T23:22:56;98276.25;;;11.42;68.27
64460;BME280;50828;53.756;21.140;2023-10-31T23:28:04;98276.20;;;11.40;68.51
64460;BME280;50828;53.756;21.140;2023-10-31T23:33:11;98285.63;;;11.39;68.28
64460;BME280;50828;53.756;21.140;2023-10-31T23:38:19;98294.31;;;11.40;68.30
64460;BME280;50828;53.756;21.140;2023-10-31T23:43:27;98296.14;;;11.35;68.94
64460;BME280;50828;53.756;21.140;2023-10-31T23:48:34;98303.48;;;11.28;69.30
64460;BME280;50828;53.756;21.140;2023-10-31T23:53:42;98315.98;;;11.24;69.13
64460;BME280;50828;53.756;21.140;2023-10-31T23:58:51;98334.93;;;11.19;69.07
